Terminal Aerodrome Forecast
Issued by NWS Grand Junction, CO

Home | Current Version | Previous Version | Text Only | Print | Product List | Glossary On
Versions: 1 2 3 4 5 6 7 8 9 10 11 12 13 14 15 16 17 18 19 20 21 22 23 24 25 26 27 28 29 30 31 32 33 34 35 36 37 38 39
000
FTUS45 KGJT 181426 AAB
TAFGJT
TAF AMD
KGJT 181426Z 1814/1912 33004KT 4SM -SN BR BKN007 OVC014
      TEMPO 1815/1817 6SM BR SCT008 OVC014
     FM181700 32003KT P6SM SCT014 BKN022
     FM181900 34003KT P6SM SCT060
     FM190200 02004KT P6SM BKN100=

USA.gov is the U.S. government's official web portal to all federal, state and local government web resources and services.